Terminal Aerodrome Forecast
Issued by NWS

Home | Current Version | Previous Version | Text Only | Print | Product List | Glossary On
Versions: 1 2 3 4 5 6 7 8 9 10 11 12 13 14 15 16 17 18
000
FTUS44 KTSA 171900 AAA
TAFRVS
TAF AMD
KRVS 171905Z 1719/1818 11006KT P6SM VCSH OVC070
     FM172100 10005KT 5SM -RA BR OVC050
     FM180300 10006KT 4SM -DZ BR OVC012
     FM180600 11005KT 4SM -DZ BR OVC007
     FM180900 13005KT 2SM -DZ BR OVC004=

USA.gov is the U.S. government's official web portal to all federal, state and local government web resources and services.